• Join FlightAware (Why Join?)
  • Login
  • US Flag 
10:47AM EDT


 

Airport Tracker/Info


-or-


 

Live Flight TrackerFlight Track Log ✈ JBU661 ✈ 03-Oct-2013 ✈ KJFK - TBPB / BGI

Flight Track Log - Related Links

Times and Time Zones

All times are in EDT time to prevent confusion due to time zone crossing. See the JBU661 flight status page for this flight to view local times or setup timezone preferences in your user account.

Time Position Orientation Groundspeed Altitude Reporting Facility
EDT Latitude Longitude Course Direction KTS MPH feet Rate Location/Type
08:31AM 40.6440 -73.7750 30° Northeast  Level FlightAware
08:43AM 40.5333 -73.5928 90° East  Level FlightAware Approximate
08:44AM 40.4804 -73.4952 128° Southeast  Level FlightAware Approximate
08:45AM 40.4133 -73.3833 128° Southeast  Level FlightAware Approximate
08:46AM 40.3438 -73.2741 131° Southeast  Level FlightAware Approximate
08:47AM 40.2753 -73.1640 128° Southeast  Level FlightAware Approximate
08:48AM 40.2084 -73.0522 128° Southeast  Level FlightAware Approximate
08:52AM 40.6310 -73.7780 298° West 96 110  Level FlightAware
08:52AM 40.6390 -73.7970 299° West 177 204 780 Level FlightAware
08:53AM 40.6480 -73.8150 303° West 176 203 600 1,920 Climbing FlightAware
08:53AM 40.6490 -73.8200 285° West 175 201 900 2,220 Climbing FlightAware
08:53AM 40.6500 -73.8320 276° West 182 209 1,200 1,980 Climbing FlightAware
08:53AM 40.6490 -73.8360 252° West 186 214 1,300 960 Climbing FlightAware
08:53AM 40.6450 -73.8440 237° Southwest 191 220 1,400 840 Climbing FlightAware
08:54AM 40.6340 -73.8640 234° Southwest 212 244 1,700 960 Climbing FlightAware
08:54AM 40.6230 -73.8790 226° Southwest 228 262 2,000 1,200 Climbing FlightAware
08:54AM 40.6150 -73.8850 210° Southwest 240 276 2,200 960 Climbing FlightAware
08:54AM 40.6110 -73.8870 201° Southwest 244 281 2,200 1,200 Level FlightAware
08:54AM 40.6040 -73.8880 186° South 252 290 2,400 1,920 Climbing FlightAware
08:54AM 40.5800 -73.8760 159° South 276 318 3,100 1,980 Climbing FlightAware
08:55AM 40.5720 -73.8660 136° Southeast 284 327 3,400 2,220 Climbing FlightAware
08:55AM 40.5670 -73.8550 121° Southeast 287 330 3,700 3,000 Climbing FlightAware
08:55AM 40.5560 -73.8270 117° Southeast 282 325 4,700 3,000 Climbing FlightAware
08:55AM 40.5430 -73.7920 116° Southeast 290 334 5,700 2,520 Climbing FlightAware
08:56AM 40.5290 -73.7610 121° Southeast 295 339 6,500 2,400 Climbing FlightAware
08:56AM 40.5140 -73.7230 117° Southeast 301 346 7,500 2,580 Climbing FlightAware
08:56AM 40.5010 -73.6900 117° Southeast 304 350 8,400 2,220 Climbing FlightAware
08:57AM 40.4880 -73.6560 117° Southeast 313 360 9,000 2,040 Climbing FlightAware
08:57AM 40.4740 -73.6190 116° Southeast 317 365 9,900 1,560 Climbing FlightAware
08:58AM 40.4500 -73.5580 117° Southeast 346 398 10,500 900 Climbing FlightAware
08:58AM 40.4210 -73.4820 117° Southeast 382 440 11,000 1,020 Climbing FlightAware
08:59AM 40.4020 -73.4420 122° Southeast 393 452 11,500 1,500 Climbing FlightAware
08:59AM 40.3580 -73.3870 136° Southeast 401 461 12,400 1,800 Climbing FlightAware
09:00AM 40.3150 -73.3350 137° Southeast 404 465 13,500 1,920 Climbing FlightAware
09:00AM 40.2610 -73.2690 137° Southeast 410 472 14,700 1,860 Climbing FlightAware
09:01AM 40.2150 -73.2110 136° Southeast 410 472 15,800 1,680 Climbing FlightAware
09:02AM 40.1700 -73.1550 136° Southeast 415 478 16,700 1,860 Climbing FlightAware
09:02AM 40.1180 -73.0900 136° Southeast 410 472 18,100 1,740 Climbing FlightAware
09:03AM 40.0720 -73.0340 137° Southeast 419 482 18,700 1,200 Climbing FlightAware
09:03AM 40.0280 -72.9790 136° Southeast 425 489 19,400 1,200 Climbing FlightAware
09:04AM 39.9690 -72.9080 137° Southeast 433 498 20,200 1,200 Climbing FlightAware
09:05AM 39.9120 -72.8380 137° Southeast 439 505 21,000 1,200 Climbing FlightAware
09:05AM 39.8540 -72.7660 136° Southeast 443 510 21,800 1,140 Climbing FlightAware
09:06AM 39.8020 -72.7030 137° Southeast 451 519 22,400 960 Climbing FlightAware
09:06AM 39.7450 -72.6340 137° Southeast 455 524 23,000 1,020 Climbing FlightAware
09:07AM 39.6950 -72.5730 137° Southeast 459 528 23,600 1,200 Climbing FlightAware
09:08AM 39.6320 -72.4960 137° Southeast 460 529 24,500 1,020 Climbing FlightAware
09:08AM 39.5630 -72.4120 137° Southeast 468 539 25,100 840 Climbing FlightAware
09:09AM 39.4990 -72.3360 137° Southeast 473 544 25,700 420 Climbing FlightAware
09:10AM 39.4390 -72.2610 136° Southeast 474 545 25,700 840 Level FlightAware
09:10AM 39.3710 -72.1820 138° Southeast 482 555 26,800 960 Climbing FlightAware
09:11AM 39.3100 -72.1080 137° Southeast 486 559 27,000 660 Climbing FlightAware
09:12AM 39.2490 -72.0360 138° Southeast 492 566 27,700 960 Climbing FlightAware
09:12AM 39.1810 -71.9550 137° Southeast 496 571 28,200 720 Climbing FlightAware
09:13AM 39.2490 -72.0360 317° Northwest 499 574 28,600 1,020 Climbing FlightAware
09:13AM 39.2490 -72.0360 317° Northwest 499 574 29,400 600 Climbing FlightAware
09:14AM 39.1950 -71.9710 137° Southeast 499 574 29,400  Level FlightAware
09:15AM 39.1430 -71.9090 137° Southeast 499 574 29,400  Level FlightAware
09:15AM 39.0910 -71.8470 137° Southeast 499 574 29,400  Level FlightAware
09:16AM 39.0400 -71.7850 137° Southeast 499 574 29,400  Level FlightAware
09:16AM 38.9880 -71.7230 137° Southeast 499 574 29,400  Level FlightAware
09:17AM 38.9360 -71.6610 137° Southeast 499 574 29,400 2,340 Level FlightAware
09:18AM 38.6122 -71.3069 137° Southeast 484 557 33,000 2,220 Climbing New York Center
09:19AM 38.5147 -71.1867 136° Southeast 484 557 33,700 600 Climbing New York Center
09:20AM 38.4169 -71.0669 136° Southeast 484 557 34,300 480 Climbing New York Center
09:21AM 38.3172 -70.9553 139° Southeast 484 557 34,700 300 Climbing New York Center
09:22AM 38.2214 -70.8333 135° Southeast 484 557 34,900 60 Climbing New York Center
09:23AM 38.1214 -70.7197 138° Southeast 484 557 34,900  Level New York Center
09:24AM 38.0297 -70.6194 139° Southeast 473 544 34,900  Level New York Center
09:25AM 37.9086 -70.5486 155° Southeast 473 544 35,000 60 Climbing New York Center
09:25AM 38.0000 -70.5833 153° Southeast 460 529 35,000 -120 Level New York Oceanic (ODAPS)
09:26AM 37.7833 -70.4675 153° Southeast 473 544 34,900 -60 Descending New York Center
09:27AM 37.6706 -70.3864 150° Southeast 468 539 34,900  Level New York Center
09:29AM 37.5109 -70.2623 154° Southeast  Level FlightAware Approximate
09:36AM 36.7458 -69.8017 154° Southeast  Level FlightAware Approximate
09:37AM 36.6364 -69.7366 154° Southeast  Level FlightAware Approximate
09:38AM 36.5269 -69.6718 155° Southeast  Level FlightAware Approximate
09:39AM 36.4174 -69.6071 155° Southeast  Level FlightAware Approximate
09:40AM 36.3078 -69.5426 155° Southeast  Level FlightAware Approximate
09:41AM 36.1983 -69.4783 155° Southeast  Level FlightAware Approximate
09:41AM 36.1667 -69.4500 143° Southeast 480 552 35,000  Level New York Oceanic (ODAPS)
09:42AM 36.0966 -69.3981 142° Southeast  Level FlightAware Approximate
09:43AM 36.0013 -69.3056 142° Southeast  Level FlightAware Approximate
09:44AM 35.9058 -69.2133 142° Southeast  Level FlightAware Approximate
09:45AM 35.8102 -69.1212 142° Southeast  Level FlightAware Approximate
09:46AM 35.7146 -69.0293 142° Southeast  Level FlightAware Approximate
09:47AM 35.6189 -68.9377 142° Southeast  Level FlightAware Approximate
09:48AM 35.3140 -68.6526 143° Southeast 480 552 35,000  Level FlightAware Transoceanic
09:49AM 35.2071 -68.5542 143° Southeast 480 552 35,000  Level FlightAware Transoceanic
09:50AM 35.1001 -68.4559 143° Southeast 480 552 35,000  Level FlightAware Transoceanic
09:51AM 34.9930 -68.3580 143° Southeast 480 552 35,000  Level FlightAware Transoceanic
09:52AM 34.8858 -68.2602 143° Southeast 480 552 35,000  Level FlightAware Transoceanic
09:53AM 34.7785 -68.1628 143° Southeast 480 552 35,000  Level FlightAware Transoceanic
09:54AM 34.6712 -68.0656 143° Southeast 480 552 35,000  Level FlightAware Transoceanic
09:55AM 34.5638 -67.9686 143° Southeast 480 552 35,000  Level FlightAware Transoceanic
09:56AM 34.4563 -67.8719 143° Southeast 480 552 35,000  Level FlightAware Transoceanic
09:57AM 34.3487 -67.7755 144° Southeast 480 552 35,000  Level FlightAware Transoceanic
09:58AM 34.2411 -67.6793 144° Southeast 480 552 35,000  Level FlightAware Transoceanic
09:59AM 34.1333 -67.5833 170° South 480 552 35,000  Level FlightAware Transoceanic
10:00AM 34.0056 -67.5558 170° South 480 552 35,000  Level FlightAware Transoceanic
10:01AM 33.8779 -67.5285 170° South 480 552 35,000  Level FlightAware Transoceanic
10:02AM 33.7503 -67.5011 170° South 480 552 35,000  Level FlightAware Transoceanic
10:03AM 33.6226 -67.4739 170° South 480 552 35,000  Level FlightAware Transoceanic
10:04AM 33.4948 -67.4467 170° South 480 552 35,000  Level FlightAware Transoceanic
10:05AM 33.3671 -67.4197 170° South 480 552 35,000  Level FlightAware Transoceanic
10:06AM 33.2394 -67.3927 170° South 480 552 35,000  Level FlightAware Transoceanic
10:32AM 29.9167 -66.7167 170° South 448 516 35,000  Level New York Oceanic (ODAPS)
10:40AM 28.9205 -66.5230 170° South 448 516 35,000  Level FlightAware Transoceanic
10:41AM 28.7960 -66.4991 170° South 448 516 35,000  Level FlightAware Transoceanic
10:42AM 28.6714 -66.4752 170° South 448 516 35,000  Level FlightAware Transoceanic
10:43AM 28.5469 -66.4514 170° South 448 516 35,000  Level FlightAware Transoceanic
10:44AM 28.4223 -66.4276 170° South 448 516 35,000  Level FlightAware Transoceanic
10:45AM 28.2978 -66.4039 170° South 448 516 35,000  Level FlightAware Transoceanic
10:46AM 28.1732 -66.3803 171° South 448 516 35,000  Level FlightAware Transoceanic
10:47AM 28.0487 -66.3567 171° South 448 516 35,000  Level FlightAware Transoceanic
10:48AM 27.9241 -66.3331 171° South 448 516 35,000  Level FlightAware Transoceanic
10:49AM 27.7995 -66.3096 171° South 448 516 35,000  Level FlightAware Transoceanic
10:50AM 27.6749 -66.2862 171° South 448 516 35,000  Level FlightAware Transoceanic
10:51AM 27.5504 -66.2628 171° South 448 516 35,000  Level FlightAware Transoceanic
10:52AM 27.4258 -66.2395 171° South 448 516 35,000  Level FlightAware Transoceanic
10:53AM 27.3012 -66.2162 171° South 448 516 35,000  Level FlightAware Transoceanic
10:54AM 27.1766 -66.1929 171° South 448 516 35,000  Level FlightAware Transoceanic
10:55AM 27.0520 -66.1698 171° South 448 516 35,000  Level FlightAware Transoceanic
10:56AM 26.9274 -66.1467 171° South 448 516 35,000  Level FlightAware Transoceanic
10:57AM 26.8028 -66.1236 171° South 448 516 35,000  Level FlightAware Transoceanic
10:58AM 26.6782 -66.1005 171° South 448 516 35,000  Level FlightAware Transoceanic
10:59AM 26.5536 -66.0776 171° South 448 516 35,000  Level FlightAware Transoceanic
11:00AM 26.4290 -66.0547 171° South 448 516 35,000  Level FlightAware Transoceanic
11:01AM 26.3044 -66.0318 171° South 448 516 35,000  Level FlightAware Transoceanic
11:02AM 26.1797 -66.0090 171° South 448 516 35,000  Level FlightAware Transoceanic
11:03AM 26.0551 -65.9862 171° South 448 516 35,000  Level FlightAware Transoceanic
11:04AM 25.9305 -65.9635 171° South 448 516 35,000  Level FlightAware Transoceanic
11:05AM 25.8058 -65.9408 171° South 448 516 35,000  Level FlightAware Transoceanic
11:06AM 25.6812 -65.9181 171° South 448 516 35,000  Level FlightAware Transoceanic
11:07AM 25.5566 -65.8956 171° South 448 516 35,000  Level FlightAware Transoceanic
11:08AM 25.4319 -65.8730 171° South 448 516 35,000  Level FlightAware Transoceanic
11:09AM 25.3073 -65.8505 171° South 448 516 35,000  Level FlightAware Transoceanic
11:10AM 25.1826 -65.8281 171° South 448 516 35,000  Level FlightAware Transoceanic
11:11AM 25.0580 -65.8057 171° South 448 516 35,000  Level FlightAware Transoceanic
11:12AM 24.9333 -65.7833 171° South 448 516 35,000  Level FlightAware Transoceanic
11:13AM 24.8139 -65.7623 171° South 448 516 35,000  Level FlightAware Transoceanic
11:14AM 24.6945 -65.7413 171° South 448 516 35,000  Level FlightAware Transoceanic
11:15AM 24.5750 -65.7203 171° South 448 516 35,000  Level FlightAware Transoceanic
11:16AM 24.4556 -65.6994 171° South 448 516 35,000  Level FlightAware Transoceanic
11:17AM 24.3362 -65.6785 171° South 448 516 35,000  Level FlightAware Transoceanic
11:18AM 24.2167 -65.6576 171° South 448 516 35,000  Level FlightAware Transoceanic
11:19AM 24.0973 -65.6368 171° South 448 516 35,000  Level FlightAware Transoceanic
11:20AM 23.9778 -65.6160 171° South 448 516 35,000  Level FlightAware Transoceanic
11:21AM 23.8584 -65.5953 171° South 448 516 35,000  Level FlightAware Transoceanic
11:22AM 23.7389 -65.5746 171° South 448 516 35,000  Level FlightAware Transoceanic
11:23AM 23.6195 -65.5539 171° South 448 516 35,000  Level FlightAware Transoceanic
11:24AM 23.5481 -65.4470 126° Southeast  Level FlightAware Approximate
11:25AM 23.4766 -65.3402 126° Southeast  Level FlightAware Approximate
11:26AM 23.4006 -65.3782 170° South  Level FlightAware Approximate
11:26AM 23.5000 -65.5333 165° South 433 498 35,000  Level New York Oceanic (ODAPS)
11:27AM 23.2812 -65.3558 170° South  Level FlightAware Approximate
11:28AM 23.1617 -65.3334 170° South  Level FlightAware Approximate
11:29AM 23.0422 -65.3111 170° South  Level FlightAware Approximate
11:30AM 22.9227 -65.2888 170° South  Level FlightAware Approximate
11:31AM 22.8032 -65.2665 170° South  Level FlightAware Approximate
11:32AM 22.6661 -65.2974 165° South 433 498 35,000  Level FlightAware Transoceanic
11:33AM 22.5470 -65.2639 165° South 433 498 35,000  Level FlightAware Transoceanic
11:34AM 22.4278 -65.2305 165° South 433 498 35,000  Level FlightAware Transoceanic
11:35AM 22.3087 -65.1972 165° South 433 498 35,000  Level FlightAware Transoceanic
11:36AM 22.1895 -65.1639 166° South 433 498 35,000  Level FlightAware Transoceanic
11:37AM 22.0703 -65.1306 166° South 433 498 35,000  Level FlightAware Transoceanic
11:38AM 21.9511 -65.0974 166° South 433 498 35,000  Level FlightAware Transoceanic
11:38AM 21.9000 -65.0833 166° South 460 529 35,000  Level San Juan Center
11:39AM 21.8319 -65.0643 166° South 433 498 35,000  Level FlightAware Transoceanic
11:40AM 21.7127 -65.0312 166° South 433 498 35,000  Level FlightAware Transoceanic
11:41AM 21.5935 -64.9982 166° South 433 498 35,000  Level FlightAware Transoceanic
11:42AM 21.4743 -64.9652 166° South 433 498 35,000  Level FlightAware Transoceanic
11:43AM 21.3551 -64.9323 166° South 433 498 35,000  Level FlightAware Transoceanic
11:44AM 21.2390 -64.7100 166° South 444 511 35,000  Level FlightAware
11:45AM 21.1810 -64.6720 149° Southeast 444 511 35,000  Level FlightAware
11:46AM 21.1250 -64.6370 150° Southeast 444 511 35,000  Level FlightAware
11:46AM 21.0720 -64.6020 148° Southeast 444 511 35,000  Level FlightAware
11:47AM 21.0180 -64.5670 149° Southeast 444 511 35,000  Level FlightAware
11:48AM 20.9620 -64.5320 150° Southeast 444 511 35,000  Level FlightAware
11:48AM 20.9050 -64.4950 149° Southeast 444 511 35,000  Level FlightAware
11:49AM 20.8550 -64.4620 148° Southeast 444 511 35,000  Level FlightAware
11:49AM 20.8010 -64.4280 150° Southeast 444 511 35,000  Level FlightAware
11:50AM 20.6630 -64.3560 154° Southeast 439 505 35,000  Level FlightAware
11:51AM 20.6050 -64.3200 150° Southeast 439 505 35,000  Level FlightAware
11:51AM 20.5510 -64.2870 150° Southeast 439 505 35,000  Level FlightAware
11:52AM 20.4980 -64.2540 150° Southeast 439 505 35,000  Level FlightAware
11:52AM 20.3970 -64.1930 150° Southeast 440 506 35,000  Level FlightAware
11:53AM 20.3480 -64.1640 151° Southeast 440 506 35,000  Level FlightAware
11:54AM 20.2940 -64.1300 149° Southeast 440 506 35,000  Level FlightAware
11:54AM 20.2400 -64.0970 150° Southeast 440 506 35,000  Level FlightAware
11:55AM 20.1890 -64.0660 150° Southeast 440 506 35,000  Level FlightAware
11:55AM 20.0900 -64.0070 151° Southeast 437 503 35,000  Level FlightAware
11:56AM 20.0300 -63.9700 150° Southeast 437 503 35,000  Level FlightAware
11:57AM 19.9760 -63.9370 150° Southeast 437 503 35,000  Level FlightAware
11:57AM 19.9230 -63.9040 150° Southeast 437 503 35,000  Level FlightAware
11:58AM 19.8320 -63.8510 151° Southeast 438 504 35,000  Level FlightAware
11:58AM 19.7680 -63.8120 150° Southeast 438 504 35,000  Level FlightAware
11:59AM 19.7040 -63.7740 151° Southeast 439 505 35,000  Level FlightAware
12:00PM 19.6420 -63.7360 150° Southeast 438 504 35,000  Level FlightAware
12:00PM 19.5850 -63.7020 151° Southeast 439 505 35,000  Level FlightAware
12:01PM 19.5130 -63.6580 150° Southeast 439 505 35,000  Level FlightAware
12:01PM 19.4570 -63.6240 150° Southeast 439 505 35,000  Level FlightAware
12:02PM 19.4070 -63.5930 150° Southeast 439 505 35,000  Level FlightAware
12:03PM 19.3530 -63.5600 150° Southeast 439 505 35,000  Level FlightAware
12:03PM 19.2990 -63.5270 150° Southeast 439 505 35,000  Level FlightAware
12:04PM 19.2450 -63.4950 151° Southeast 439 505 35,000  Level FlightAware
12:04PM 19.1940 -63.4630 149° Southeast 439 505 35,000  Level FlightAware
12:05PM 19.1360 -63.4280 150° Southeast 439 505 35,000  Level FlightAware
12:06PM 19.0810 -63.3940 150° Southeast 439 505 35,000  Level FlightAware
12:06PM 19.0120 -63.3520 150° Southeast 439 505 35,000  Level FlightAware
12:07PM 18.9580 -63.3190 150° Southeast 439 505 35,000  Level FlightAware
12:08PM 18.9040 -63.2860 150° Southeast 439 505 35,000  Level FlightAware
12:08PM 18.8470 -63.2520 151° Southeast 439 505 35,000  Level FlightAware
12:09PM 18.7970 -63.2210 150° Southeast 439 505 35,000  Level FlightAware
12:09PM 18.7430 -63.1880 150° Southeast 439 505 35,000  Level FlightAware
12:10PM 18.6860 -63.1530 150° Southeast 439 505 35,000  Level FlightAware
12:11PM 18.3667 -62.9167 150° Southeast 460 529 35,000  Level San Juan Center
12:12PM 18.2667 -62.8500 148° Southeast 460 529 35,000  Level San Juan Center
12:13PM 18.1667 -62.7667 142° Southeast 460 529 35,000  Level San Juan Center
12:14PM 18.0667 -62.6833 142° Southeast 460 529 35,000  Level San Juan Center
12:15PM 17.9500 -62.6167 151° Southeast 450 518 35,000  Level San Juan Center
12:16PM 17.8333 -62.5833 165° South 450 518 35,000  Level San Juan Center
12:17PM 17.7167 -62.5333 158° South 460 529 35,000  Level San Juan Center
12:19PM 17.6034 -62.4842 127° Southeast  Level FlightAware Approximate
12:26PM 17.0818 -61.7796 151° Southeast  Level FlightAware Approximate
12:27PM 16.9753 -61.7173 151° Southeast  Level FlightAware Approximate
12:28PM 16.8687 -61.6551 151° Southeast  Level FlightAware Approximate
12:28PM 16.6350 -61.8040 151° Southeast 450 518 35,000  Level FlightAware
12:28PM 16.5750 -61.7640 147° Southeast 448 516 35,000  Level FlightAware
12:29PM 16.5120 -61.7220 147° Southeast 446 513 35,000  Level FlightAware
12:29PM 16.4530 -61.6830 148° Southeast 445 512 35,000  Level FlightAware
12:30PM 16.3810 -61.6350 147° Southeast 445 512 35,000  Level FlightAware
12:31PM 16.3280 -61.6000 148° Southeast 446 513 35,000  Level FlightAware
12:31PM 16.2570 -61.5530 148° Southeast 446 513 35,000  Level FlightAware
12:32PM 16.1930 -61.5110 148° Southeast 446 513 35,000  Level FlightAware
12:33PM 16.1320 -61.4700 147° Southeast 446 513 35,000  Level FlightAware
12:33PM 16.0590 -61.4220 148° Southeast 447 514 35,000  Level FlightAware
12:34PM 15.9990 -61.3830 148° Southeast 448 516 35,000  Level FlightAware
12:34PM 15.9370 -61.3410 147° Southeast 449 517 35,000  Level FlightAware
12:35PM 15.8770 -61.3020 148° Southeast 449 517 35,000  Level FlightAware
12:36PM 15.8140 -61.2600 147° Southeast 449 517 35,000  Level FlightAware
12:36PM 15.7330 -61.2070 148° Southeast 449 517 35,000  Level FlightAware
12:37PM 15.6670 -61.1630 147° Southeast 448 516 35,000  Level FlightAware
12:38PM 15.6060 -61.1240 148° Southeast 447 514 35,000  Level FlightAware
12:38PM 15.5450 -61.0840 148° Southeast 446 513 35,000  Level FlightAware
12:39PM 15.4820 -61.0420 147° Southeast 447 514 35,000  Level FlightAware
12:39PM 15.4210 -61.0020 148° Southeast 447 514 35,000  Level FlightAware
12:40PM 15.3540 -60.9580 148° Southeast 447 514 35,000  Level FlightAware
12:40PM 15.2960 -60.9200 148° Southeast 447 514 35,000  Level FlightAware
12:41PM 15.2460 -60.8880 148° Southeast 448 516 35,000  Level FlightAware
12:42PM 15.1760 -60.8420 148° Southeast 449 517 35,000  Level FlightAware
12:42PM 15.1240 -60.8080 148° Southeast 450 518 35,000  Level FlightAware
12:43PM 15.0520 -60.7610 148° Southeast 451 519 35,000 -120 Level FlightAware
12:43PM 15.0040 -60.7300 148° Southeast 452 520 34,900 -1,200 Descending FlightAware
12:44PM 14.9260 -60.6790 148° Southeast 447 514 33,600 -1,920 Descending FlightAware
12:45PM 14.8680 -60.6410 148° Southeast 450 518 32,600 -1,980 Descending FlightAware
12:45PM 14.8000 -60.5960 147° Southeast 451 519 31,300 -2,040 Descending FlightAware
12:46PM 14.7420 -60.5590 148° Southeast 453 521 30,200 -1,980 Descending FlightAware
12:46PM 14.6780 -60.5170 148° Southeast 460 529 29,100 -1,980 Descending FlightAware
12:47PM 14.6150 -60.4760 148° Southeast 459 528 27,900 -1,920 Descending FlightAware
12:47PM 14.5660 -60.4440 148° Southeast 451 519 27,000 -2,040 Descending FlightAware
12:48PM 14.4930 -60.3970 148° Southeast 440 506 25,600 -1,740 Descending FlightAware
12:49PM 14.4340 -60.3580 147° Southeast 430 495 25,000 -540 Descending FlightAware
12:49PM 14.3750 -60.3200 148° Southeast 435 501 25,000  Level FlightAware
12:50PM 14.3160 -60.2820 148° Southeast 433 498 25,000 -720 Level FlightAware
12:50PM 14.2440 -60.2350 148° Southeast 399 459 24,200 -1,860 Descending FlightAware
12:51PM 14.1850 -60.1970 148° Southeast 398 458 22,800 -2,220 Descending FlightAware
12:52PM 14.1360 -60.1660 148° Southeast 396 456 21,700 -1,920 Descending FlightAware
12:52PM 14.0780 -60.1330 151° Southeast 387 445 20,600 -1,500 Descending FlightAware
12:53PM 14.0240 -60.1070 155° Southeast 387 445 20,000 -540 Descending FlightAware
12:53PM 13.9590 -60.0850 162° South 384 442 20,000  Level FlightAware
12:54PM 13.9050 -60.0710 166° South 384 442 20,000 -540 Level FlightAware
12:55PM 13.8390 -60.0520 164° South 384 442 19,400 -2,700 Descending FlightAware
12:55PM 13.7770 -60.0350 165° South 401 461 16,700 -4,860 Descending FlightAware
12:55PM 13.7440 -60.0210 158° South 408 470 15,200 -4,560 Descending FlightAware
12:56PM 13.6860 -59.9870 150° Southeast 406 467 12,600 -3,660 Descending FlightAware
12:57PM 13.6290 -59.9550 151° Southeast 379 436 10,900 -1,860 Descending FlightAware
12:57PM 13.5760 -59.9260 152° Southeast 325 374 10,400 -840 Descending FlightAware
12:58PM 13.5420 -59.9040 148° Southeast 297 342 10,000 -1,260 Descending FlightAware
12:58PM 13.5290 -59.8960 149° Southeast 294 338 9,600 -2,160 Descending FlightAware
12:58PM 13.5020 -59.8790 149° Southeast 288 331 8,800 -2,100 Descending FlightAware
12:58PM 13.4930 -59.8730 147° Southeast 286 329 8,500 -2,160 Descending FlightAware
12:59PM 13.4600 -59.8520 148° Southeast 281 323 7,500 -2,100 Descending FlightAware
12:59PM 13.4420 -59.8400 147° Southeast 279 321 6,900 -2,160 Descending FlightAware
12:59PM 13.4170 -59.8240 148° Southeast 275 316 6,100 -2,100 Descending FlightAware
01:00PM 13.3950 -59.8100 148° Southeast 272 313 5,400 -1,980 Descending FlightAware
01:00PM 13.3720 -59.7950 148° Southeast 267 307 4,700 -2,100 Descending FlightAware
01:01PM 13.3510 -59.7820 149° Southeast 265 305 4,000 -1,860 Descending FlightAware
01:01PM 13.3310 -59.7690 148° Southeast 263 303 3,500 -1,500 Descending FlightAware
01:01PM 13.3130 -59.7570 147° Southeast 262 302 3,100 -1,080 Descending FlightAware
01:01PM 13.3000 -59.7530 163° South 256 295 3,000 -180 Descending FlightAware
01:02PM 13.2730 -59.7460 166° South 264 304 3,000  Level FlightAware
01:02PM 13.2470 -59.7400 167° South 260 299 3,000  Level FlightAware
01:02PM 13.2280 -59.7360 168° South 261 300 3,000  Level FlightAware
01:03PM 13.2090 -59.7310 166° South 249 287 3,000  Level FlightAware
01:03PM 13.1860 -59.7260 168° South 226 260 3,000  Level FlightAware
01:03PM 13.1620 -59.7210 169° South 219 252 3,000  Level FlightAware
01:04PM 13.1420 -59.7160 166° South 216 249 3,000 -300 Level FlightAware
01:04PM 13.1230 -59.7120 168° South 214 246 2,800 -780 Descending FlightAware
01:04PM 13.1050 -59.7080 168° South 213 245 2,500 -1,020 Descending FlightAware
01:05PM 13.0810 -59.7030 169° South 209 241 2,100 -840 Descending FlightAware
01:05PM 13.0700 -59.6990 160° South 198 228 2,000 -360 Descending FlightAware
01:05PM 13.0650 -59.6950 142° Southeast 201 231 2,000  Level FlightAware
01:05PM 13.0600 -59.6880 126° Southeast 202 232 2,000  Level FlightAware
01:06PM 13.0510 -59.6720 120° Southeast 190 219 2,000  Level FlightAware
01:06PM 13.0420 -59.6550 119° Southeast 189 217 2,000  Level FlightAware
01:06PM 13.0370 -59.6430 113° Southeast 190 219 2,000  Level FlightAware
01:07PM 13.0420 -59.6260 73° East 171 197 2,000  Level FlightAware
01:07PM 13.0440 -59.6170 77° East 155 178 2,000  Level FlightAware
01:07PM 13.0480 -59.6030 74° East 147 169 2,000 -360 Level FlightAware
01:07PM 13.0500 -59.5920 79° East 145 167 1,800 -840 Descending FlightAware
01:08PM 13.0540 -59.5780 74° East 136 157 1,500 -720 Descending FlightAware
01:08PM 13.0560 -59.5670 79° East 135 155 1,300 -660 Descending FlightAware
01:08PM 13.0590 -59.5540 77° East 133 153 1,100 -600 Descending FlightAware
01:09PM 13.0630 -59.5420 71° East 133 153 900 -720 Descending FlightAware
01:09PM 13.0660 -59.5260 79° East 132 152 600 -780 Descending FlightAware
01:09PM 13.0690 -59.5160 73° East 135 155 400 -720 Descending FlightAware
01:10PM 13.0710 -59.5050 79° East 136 157 200 -720 Descending FlightAware
01:10PM 13.0740 -59.4940 74° East 78 90 -600 Descending FlightAware